Terminal Aerodrome Forecast
Issued by NWS San Angelo, TX

Home | Current Version | Previous Version | Text Only | Print | Product List | Glossary On
Versions: 1 2 3 4 5 6 7 8 9 10 11 12 13 14 15
000
FTUS44 KSJT 311800 AAA
TAFSJT
TAF AMD
KSJT 311810Z 3118/0118 17010KT 3SM -RA BR OVC005
     FM010100 18008KT 4SM BR OVC004
     FM011400 25008KT P6SM BKN015
     FM011700 36015G23KT P6SM BKN025=

USA.gov is the U.S. government's official web portal to all federal, state and local government web resources and services.